Time;durP1;ratioP1;P1;durP2;ratioP2;P2;SDS_P1;SDS_P2;PMS_P1;PMS_P2;Temp;Humidity;BMP_temperature;BMP_pressure;BME280_temperature;BME280_humidity;BME280_pressure;Samples;Min_cycle;Max_cycle;Signal;HPM_P1;HPM_P2
2023/07/03 00:00:39;;;;;;;11.30;3.70;;;;;;;;;;4981336;28;20777;-62
2023/07/03 00:03:07;;;;;;;13.87;4.20;;;;;;;;;;4985431;28;20438;-62
2023/07/03 00:05:35;;;;;;;12.07;3.85;;;;;;;;;;4978301;28;20432;-62
2023/07/03 00:08:02;;;;;;;15.23;3.87;;;;;;;;;;4989241;28;20467;-62
2023/07/03 00:10:29;;;;;;;12.55;3.88;;;;;;;;;;4983897;28;20475;-62
2023/07/03 00:12:56;;;;;;;15.30;4.53;;;;;;;;;;4973641;28;20424;-62
2023/07/03 00:15:23;;;;;;;15.98;4.00;;;;;;;;;;4973043;28;20901;-62
2023/07/03 00:17:50;;;;;;;16.17;3.83;;;;;;;;;;4974604;28;20486;-62
2023/07/03 00:20:17;;;;;;;14.40;4.13;;;;;;;;;;4978599;28;20436;-62
2023/07/03 00:22:47;;;;;;;13.77;4.28;;;;;;;;;;4981661;28;20431;-62
2023/07/03 00:25:14;;;;;;;17.77;4.30;;;;;;;;;;4982754;28;20551;-61
2023/07/03 00:27:41;;;;;;;14.63;4.28;;;;;;;;;;4981768;28;20499;-61
2023/07/03 00:30:09;;;;;;;15.47;4.10;;;;;;;;;;4983771;28;20433;-60
2023/07/03 00:32:36;;;;;;;12.05;4.03;;;;;;;;;;4982704;28;20484;-61
2023/07/03 00:35:03;;;;;;;13.07;4.20;;;;;;;;;;4986541;28;20479;-61
2023/07/03 00:37:30;;;;;;;11.77;4.23;;;;;;;;;;4985916;28;20453;-59
2023/07/03 00:39:59;;;;;;;15.85;4.43;;;;;;;;;;4984889;28;20510;-61
2023/07/03 00:42:26;;;;;;;11.77;4.07;;;;;;;;;;4986518;28;20473;-62
2023/07/03 00:44:53;;;;;;;12.00;4.15;;;;;;;;;;4986649;28;20492;-61
2023/07/03 00:47:21;;;;;;;11.10;3.55;;;;;;;;;;4981704;28;20478;-61
2023/07/03 00:49:48;;;;;;;14.80;4.20;;;;;;;;;;4984659;28;20467;-61
2023/07/03 00:52:16;;;;;;;15.13;4.22;;;;;;;;;;4981405;28;20432;-62
2023/07/03 00:54:43;;;;;;;13.00;4.17;;;;;;;;;;4983012;28;20463;-62
2023/07/03 00:57:13;;;;;;;13.70;4.15;;;;;;;;;;4983792;28;20460;-62
2023/07/03 00:59:41;;;;;;;12.48;4.22;;;;;;;;;;4972734;28;20461;-62
2023/07/03 01:02:10;;;;;;;13.48;4.15;;;;;;;;;;4973339;28;20419;-62
2023/07/03 01:04:40;;;;;;;13.32;4.18;;;;;;;;;;4979728;28;20465;-63
2023/07/03 01:07:09;;;;;;;13.73;4.25;;;;;;;;;;4983341;28;20414;-62
2023/07/03 01:09:37;;;;;;;13.52;4.22;;;;;;;;;;4984311;28;20898;-61
2023/07/03 01:12:05;;;;;;;12.88;3.92;;;;;;;;;;4985131;28;20983;-62
2023/07/03 01:14:35;;;;;;;12.65;4.10;;;;;;;;;;4986845;28;20430;-62
2023/07/03 01:17:02;;;;;;;13.63;4.13;;;;;;;;;;4982443;28;20471;-62
2023/07/03 01:19:31;;;;;;;11.27;3.90;;;;;;;;;;4984183;28;20895;-62
2023/07/03 01:22:02;;;;;;;14.85;4.88;;;;;;;;;;4983733;28;20939;-63
2023/07/03 01:24:33;;;;;;;13.20;4.30;;;;;;;;;;4980642;28;20455;-62
2023/07/03 01:27:03;;;;;;;15.52;4.55;;;;;;;;;;4984118;28;20434;-62
2023/07/03 01:29:31;;;;;;;19.60;4.40;;;;;;;;;;4978672;28;20852;-62
2023/07/03 01:31:59;;;;;;;14.35;4.53;;;;;;;;;;4981843;28;20483;-62
2023/07/03 01:34:28;;;;;;;16.05;4.53;;;;;;;;;;4983044;28;20457;-62
2023/07/03 01:36:55;;;;;;;16.00;4.20;;;;;;;;;;4978254;28;20416;-62
2023/07/03 01:39:23;;;;;;;12.57;4.13;;;;;;;;;;4986949;28;20847;-62
2023/07/03 01:41:51;;;;;;;14.35;4.13;;;;;;;;;;4983375;28;20428;-62
2023/07/03 01:44:19;;;;;;;13.93;4.60;;;;;;;;;;4983903;28;20426;-63
2023/07/03 01:46:46;;;;;;;17.53;4.30;;;;;;;;;;4985039;28;20422;-62
2023/07/03 01:49:13;;;;;;;13.82;3.80;;;;;;;;;;4981967;28;20481;-62
2023/07/03 01:51:45;;;;;;;16.60;4.00;;;;;;;;;;4982751;28;20426;-62
2023/07/03 01:54:13;;;;;;;20.10;4.40;;;;;;;;;;4981503;28;20835;-61
2023/07/03 01:56:42;;;;;;;15.87;4.37;;;;;;;;;;4978280;28;20432;-62
2023/07/03 01:59:12;;;;;;;15.23;4.53;;;;;;;;;;4981095;28;20897;-62
2023/07/03 02:01:43;;;;;;;11.82;3.85;;;;;;;;;;4982615;28;20454;-62
2023/07/03 02:04:11;;;;;;;13.13;4.22;;;;;;;;;;4980922;28;20424;-62
2023/07/03 02:06:40;;;;;;;15.27;4.33;;;;;;;;;;4979598;28;20516;-62
2023/07/03 02:09:08;;;;;;;21.03;4.60;;;;;;;;;;4983219;28;20837;-62
2023/07/03 02:11:35;;;;;;;14.90;4.10;;;;;;;;;;4982580;28;20575;-62
2023/07/03 02:14:02;;;;;;;17.95;4.18;;;;;;;;;;4980761;28;20429;-62
2023/07/03 02:16:31;;;;;;;15.45;4.25;;;;;;;;;;4980885;28;20426;-62
2023/07/03 02:18:58;;;;;;;15.27;4.45;;;;;;;;;;4982941;28;20435;-62
2023/07/03 02:21:25;;;;;;;15.20;4.30;;;;;;;;;;4983358;28;20429;-62
2023/07/03 02:23:52;;;;;;;14.20;4.43;;;;;;;;;;4979969;28;20484;-62
2023/07/03 02:26:19;;;;;;;15.13;4.47;;;;;;;;;;4981274;28;20469;-62
2023/07/03 02:28:46;;;;;;;15.30;4.38;;;;;;;;;;4981962;28;20473;-62
2023/07/03 02:31:13;;;;;;;15.65;4.45;;;;;;;;;;4979832;28;20475;-62
2023/07/03 02:33:41;;;;;;;17.50;4.70;;;;;;;;;;4979352;28;20492;-62
2023/07/03 02:36:08;;;;;;;15.50;4.65;;;;;;;;;;4978876;28;20412;-62
2023/07/03 02:38:35;;;;;;;16.58;4.57;;;;;;;;;;4984195;28;20472;-62
2023/07/03 02:41:03;;;;;;;18.20;4.70;;;;;;;;;;4981683;28;20428;-62
2023/07/03 02:43:30;;;;;;;15.20;4.10;;;;;;;;;;4981913;28;20803;-63
2023/07/03 02:46:02;;;;;;;16.30;4.43;;;;;;;;;;4987026;28;20924;-62
2023/07/03 02:48:29;;;;;;;16.08;4.47;;;;;;;;;;4984602;28;20992;-62
2023/07/03 02:50:58;;;;;;;18.57;4.77;;;;;;;;;;4983245;28;20423;-62
2023/07/03 02:53:25;;;;;;;16.25;4.70;;;;;;;;;;4988637;28;21009;-62
2023/07/03 02:55:52;;;;;;;18.98;4.63;;;;;;;;;;4985699;28;20445;-62
2023/07/03 02:58:19;;;;;;;21.15;4.95;;;;;;;;;;4983094;28;20969;-63
2023/07/03 03:00:46;;;;;;;17.83;4.70;;;;;;;;;;4983903;28;20482;-62
2023/07/03 03:03:14;;;;;;;14.30;4.60;;;;;;;;;;4987923;28;20487;-62
2023/07/03 03:05:41;;;;;;;18.13;4.53;;;;;;;;;;4985866;28;20521;-62
2023/07/03 03:08:11;;;;;;;16.20;4.78;;;;;;;;;;4988425;28;20431;-62
2023/07/03 03:10:40;;;;;;;18.50;4.20;;;;;;;;;;4978092;28;20835;-61
2023/07/03 03:13:07;;;;;;;16.92;4.70;;;;;;;;;;4986207;28;20430;-62
2023/07/03 03:15:35;;;;;;;15.20;4.63;;;;;;;;;;4982958;28;20475;-62
2023/07/03 03:18:02;;;;;;;20.27;4.72;;;;;;;;;;4987837;28;20430;-62
2023/07/03 03:20:29;;;;;;;17.73;4.72;;;;;;;;;;4982648;28;20416;-62
2023/07/03 03:22:56;;;;;;;15.27;4.70;;;;;;;;;;4986375;28;20958;-64
2023/07/03 03:25:25;;;;;;;17.77;4.75;;;;;;;;;;4983473;28;20423;-62
2023/07/03 03:27:52;;;;;;;22.13;5.00;;;;;;;;;;4981209;28;20491;-62
2023/07/03 03:30:19;;;;;;;17.55;4.32;;;;;;;;;;4982623;28;20422;-62
2023/07/03 03:32:46;;;;;;;18.65;5.00;;;;;;;;;;4985814;28;20434;-62
2023/07/03 03:35:13;;;;;;;17.27;4.68;;;;;;;;;;4986143;28;20425;-62
2023/07/03 03:37:40;;;;;;;19.05;4.53;;;;;;;;;;4985572;28;20431;-62
2023/07/03 03:40:09;;;;;;;18.52;5.20;;;;;;;;;;4977108;28;20422;-62
2023/07/03 03:42:37;;;;;;;21.15;4.88;;;;;;;;;;4985924;28;20423;-62
2023/07/03 03:45:05;;;;;;;22.48;4.65;;;;;;;;;;4995104;28;20425;-63
2023/07/03 03:47:32;;;;;;;19.38;4.38;;;;;;;;;;4985491;28;20494;-63
2023/07/03 03:49:59;;;;;;;16.02;4.50;;;;;;;;;;4982241;28;20422;-62
2023/07/03 03:52:26;;;;;;;19.02;5.50;;;;;;;;;;4981269;28;20436;-63
2023/07/03 03:54:53;;;;;;;19.55;4.63;;;;;;;;;;4983965;28;20764;-63
2023/07/03 03:57:20;;;;;;;19.73;4.60;;;;;;;;;;4986627;28;20431;-62
2023/07/03 03:59:48;;;;;;;16.63;4.35;;;;;;;;;;4981529;28;20815;-65
2023/07/03 04:02:15;;;;;;;20.40;4.97;;;;;;;;;;4973521;28;20416;-62
2023/07/03 04:04:42;;;;;;;15.80;4.50;;;;;;;;;;4973023;28;20431;-63
2023/07/03 04:07:09;;;;;;;20.35;4.85;;;;;;;;;;4984668;28;20792;-61
2023/07/03 04:09:36;;;;;;;19.65;4.97;;;;;;;;;;4985311;28;20426;-59
2023/07/03 04:12:03;;;;;;;19.52;5.30;;;;;;;;;;4988767;28;20489;-61
2023/07/03 04:14:30;;;;;;;19.27;4.93;;;;;;;;;;4988477;28;20477;-59
2023/07/03 04:17:00;;;;;;;22.48;4.97;;;;;;;;;;4985294;28;20422;-61
2023/07/03 04:19:27;;;;;;;15.80;4.90;;;;;;;;;;4984330;28;20518;-61
2023/07/03 04:21:54;;;;;;;20.25;5.90;;;;;;;;;;4986131;28;20426;-61
2023/07/03 04:24:21;;;;;;;23.83;5.22;;;;;;;;;;4986572;28;20430;-59
2023/07/03 04:26:48;;;;;;;21.05;5.00;;;;;;;;;;4981725;28;20946;-61
2023/07/03 04:29:15;;;;;;;22.30;5.18;;;;;;;;;;4981841;28;20424;-61
2023/07/03 04:31:43;;;;;;;17.30;4.75;;;;;;;;;;4981226;28;20408;-61
2023/07/03 04:34:11;;;;;;;21.02;5.45;;;;;;;;;;4979999;28;21000;-61
2023/07/03 04:36:38;;;;;;;19.83;5.15;;;;;;;;;;4988305;28;20430;-60
2023/07/03 04:39:07;;;;;;;20.67;4.97;;;;;;;;;;4983921;28;20422;-60
2023/07/03 04:41:34;;;;;;;22.02;5.40;;;;;;;;;;4984562;28;20426;-61
2023/07/03 04:44:01;;;;;;;20.77;5.57;;;;;;;;;;4991858;28;20418;-61
2023/07/03 04:46:29;;;;;;;23.35;5.25;;;;;;;;;;4982589;28;20495;-61
2023/07/03 04:48:59;;;;;;;19.17;4.97;;;;;;;;;;4982721;28;20838;-61
2023/07/03 04:51:30;;;;;;;19.13;5.22;;;;;;;;;;4985565;28;20430;-61
2023/07/03 04:53:58;;;;;;;19.50;5.22;;;;;;;;;;4979441;28;20510;-60
2023/07/03 04:56:25;;;;;;;19.67;5.30;;;;;;;;;;4982419;28;20556;-60
2023/07/03 04:58:52;;;;;;;24.98;5.70;;;;;;;;;;4985153;28;20427;-60
2023/07/03 05:01:20;;;;;;;18.05;4.95;;;;;;;;;;4982699;28;20422;-61
2023/07/03 05:03:47;;;;;;;36.70;8.60;;;;;;;;;;4985499;28;20439;-60
2023/07/03 05:06:14;;;;;;;22.70;5.97;;;;;;;;;;4986909;28;20831;-61
2023/07/03 05:08:42;;;;;;;18.50;5.05;;;;;;;;;;4984998;28;20477;-61
2023/07/03 05:11:09;;;;;;;20.50;5.57;;;;;;;;;;4980054;28;20422;-60
2023/07/03 05:13:36;;;;;;;20.33;4.60;;;;;;;;;;4983237;28;20490;-60
2023/07/03 05:16:03;;;;;;;21.77;5.53;;;;;;;;;;4984182;28;20477;-62
2023/07/03 05:18:30;;;;;;;22.95;5.43;;;;;;;;;;4989336;28;20428;-64
2023/07/03 05:20:57;;;;;;;19.55;5.55;;;;;;;;;;4980244;28;20432;-64
2023/07/03 05:23:24;;;;;;;22.73;4.95;;;;;;;;;;4982236;28;20823;-62
2023/07/03 05:25:53;;;;;;;19.17;5.38;;;;;;;;;;4982947;28;20957;-61
2023/07/03 05:28:20;;;;;;;22.67;5.45;;;;;;;;;;4982666;28;20480;-61
2023/07/03 05:30:54;;;;;;;21.77;5.00;;;;;;;;;;4977705;28;21133;-61
2023/07/03 05:33:21;;;;;;;21.17;5.35;;;;;;;;;;4979690;28;20477;-60
2023/07/03 05:35:48;;;;;;;22.00;5.45;;;;;;;;;;4983593;28;20428;-60
2023/07/03 05:38:15;;;;;;;18.75;5.50;;;;;;;;;;4985814;28;20441;-61
2023/07/03 05:40:42;;;;;;;15.88;4.75;;;;;;;;;;4982715;28;20431;-62
2023/07/03 05:43:10;;;;;;;22.15;5.25;;;;;;;;;;4985929;28;20472;-62
2023/07/03 05:45:37;;;;;;;20.50;5.45;;;;;;;;;;4981405;28;20463;-63
2023/07/03 05:48:04;;;;;;;22.67;5.78;;;;;;;;;;4985848;28;20488;-62
2023/07/03 05:50:31;;;;;;;24.98;5.50;;;;;;;;;;4985111;28;20426;-63
2023/07/03 05:52:58;;;;;;;20.80;5.07;;;;;;;;;;4980806;28;20434;-63
2023/07/03 05:55:25;;;;;;;19.55;4.63;;;;;;;;;;4985834;28;20914;-63
2023/07/03 05:57:52;;;;;;;22.45;5.45;;;;;;;;;;4981345;28;20971;-62
2023/07/03 06:00:21;;;;;;;19.75;5.43;;;;;;;;;;4981827;28;20418;-63
2023/07/03 06:02:51;;;;;;;20.17;5.20;;;;;;;;;;4982374;28;20497;-62
2023/07/03 06:05:20;;;;;;;27.83;5.60;;;;;;;;;;4979738;28;20447;-62
2023/07/03 06:07:47;;;;;;;22.00;5.40;;;;;;;;;;4979822;28;20889;-63
2023/07/03 06:10:14;;;;;;;25.73;5.68;;;;;;;;;;4985897;28;20429;-62
2023/07/03 06:12:41;;;;;;;25.13;5.45;;;;;;;;;;4980165;28;20440;-60
2023/07/03 06:15:09;;;;;;;21.38;5.43;;;;;;;;;;4970466;28;20423;-62
2023/07/03 06:17:38;;;;;;;19.83;5.07;;;;;;;;;;4981845;28;20427;-62
2023/07/03 06:20:07;;;;;;;20.83;5.40;;;;;;;;;;4979837;28;20427;-62
2023/07/03 06:22:34;;;;;;;19.23;5.72;;;;;;;;;;4983555;28;20424;-62
2023/07/03 06:25:01;;;;;;;19.63;5.30;;;;;;;;;;4985262;28;20480;-63
2023/07/03 06:27:28;;;;;;;17.90;5.25;;;;;;;;;;4982791;28;20439;-63
2023/07/03 06:29:55;;;;;;;20.23;5.00;;;;;;;;;;4983934;28;20977;-65
2023/07/03 06:32:22;;;;;;;20.30;4.78;;;;;;;;;;4982647;28;20492;-63
2023/07/03 06:34:50;;;;;;;25.83;5.88;;;;;;;;;;4981761;28;20430;-63
2023/07/03 06:37:17;;;;;;;18.73;4.93;;;;;;;;;;4981880;28;20516;-63
2023/07/03 06:39:44;;;;;;;22.27;5.72;;;;;;;;;;4981166;28;20430;-63
2023/07/03 06:42:11;;;;;;;18.27;5.20;;;;;;;;;;4975102;28;20418;-63
2023/07/03 06:44:40;;;;;;;18.67;5.35;;;;;;;;;;4983980;28;20428;-63
2023/07/03 06:47:07;;;;;;;21.50;5.70;;;;;;;;;;4981205;28;20422;-64
2023/07/03 06:49:35;;;;;;;21.77;5.35;;;;;;;;;;4985124;28;20464;-62
2023/07/03 06:52:03;;;;;;;18.67;5.25;;;;;;;;;;4983263;28;20429;-62
2023/07/03 06:54:30;;;;;;;20.88;5.50;;;;;;;;;;4982992;28;20911;-62
2023/07/03 06:56:57;;;;;;;21.42;5.25;;;;;;;;;;4980014;28;20431;-63
2023/07/03 06:59:24;;;;;;;20.98;5.47;;;;;;;;;;4981264;28;20465;-62
2023/07/03 07:01:51;;;;;;;18.98;5.13;;;;;;;;;;4977331;28;20474;-64
2023/07/03 07:04:18;;;;;;;19.80;5.10;;;;;;;;;;4985348;28;20419;-61
2023/07/03 07:06:45;;;;;;;19.25;5.00;;;;;;;;;;4972206;28;20901;-63
2023/07/03 07:09:14;;;;;;;21.60;5.22;;;;;;;;;;4988324;28;20422;-63
2023/07/03 07:11:42;;;;;;;21.88;5.05;;;;;;;;;;4982457;28;20481;-62
2023/07/03 07:14:09;;;;;;;17.85;5.00;;;;;;;;;;4986304;28;20434;-63
2023/07/03 07:16:37;;;;;;;14.33;4.63;;;;;;;;;;4981563;28;20839;-62
2023/07/03 07:19:05;;;;;;;16.23;5.00;;;;;;;;;;4983078;28;20422;-63
2023/07/03 07:21:33;;;;;;;13.10;4.60;;;;;;;;;;4981809;28;20420;-62
2023/07/03 07:24:01;;;;;;;17.70;5.03;;;;;;;;;;4984555;28;20493;-62
2023/07/03 07:26:33;;;;;;;16.23;4.85;;;;;;;;;;4979759;28;21177;-62
2023/07/03 07:29:00;;;;;;;17.45;4.90;;;;;;;;;;4985656;28;20940;-62
2023/07/03 07:31:28;;;;;;;15.80;5.07;;;;;;;;;;4987759;28;20911;-62
2023/07/03 07:33:55;;;;;;;19.30;5.07;;;;;;;;;;4985170;28;20877;-63
2023/07/03 07:36:23;;;;;;;17.70;5.03;;;;;;;;;;4982788;28;20434;-62
2023/07/03 07:38:50;;;;;;;17.08;5.07;;;;;;;;;;4985376;28;20477;-63
2023/07/03 07:41:17;;;;;;;19.00;5.50;;;;;;;;;;4984777;28;20930;-63
2023/07/03 07:43:47;;;;;;;17.85;5.10;;;;;;;;;;4986497;28;20475;-63
2023/07/03 07:46:14;;;;;;;16.48;5.22;;;;;;;;;;4985844;28;20521;-62
2023/07/03 07:48:41;;;;;;;19.65;5.55;;;;;;;;;;4988656;28;20486;-63
2023/07/03 07:51:09;;;;;;;18.23;5.30;;;;;;;;;;4984957;28;20424;-63
2023/07/03 07:53:36;;;;;;;13.10;5.18;;;;;;;;;;4985270;28;20430;-59
2023/07/03 07:56:03;;;;;;;19.63;5.63;;;;;;;;;;4984419;28;20488;-58
2023/07/03 07:58:30;;;;;;;18.20;5.10;;;;;;;;;;4981227;28;20453;-58
2023/07/03 08:00:59;;;;;;;14.80;5.25;;;;;;;;;;4978101;28;20479;-60
2023/07/03 08:03:26;;;;;;;16.95;5.15;;;;;;;;;;4983064;28;20422;-62
2023/07/03 08:05:57;;;;;;;18.48;4.72;;;;;;;;;;4985079;28;20431;-61
2023/07/03 08:08:26;;;;;;;14.63;4.77;;;;;;;;;;4985798;28;20599;-58
2023/07/03 08:10:53;;;;;;;15.57;5.10;;;;;;;;;;4985750;28;20762;-62
2023/07/03 08:13:20;;;;;;;20.42;4.90;;;;;;;;;;4991633;28;20522;-62
2023/07/03 08:15:47;;;;;;;18.67;5.18;;;;;;;;;;4989630;28;20961;-67
2023/07/03 08:18:16;;;;;;;17.77;4.93;;;;;;;;;;4988378;28;20476;-62
2023/07/03 08:20:44;;;;;;;14.20;4.63;;;;;;;;;;4980153;28;20430;-61
2023/07/03 08:23:11;;;;;;;12.48;4.50;;;;;;;;;;4980475;28;20492;-62
2023/07/03 08:25:38;;;;;;;14.90;4.73;;;;;;;;;;4982668;28;20424;-65
2023/07/03 08:28:05;;;;;;;17.08;5.00;;;;;;;;;;4982951;28;20425;-64
2023/07/03 08:30:32;;;;;;;15.38;4.53;;;;;;;;;;4988798;28;20484;-64
2023/07/03 08:32:59;;;;;;;19.15;4.68;;;;;;;;;;4984053;28;20830;-63
2023/07/03 08:35:28;;;;;;;15.18;5.32;;;;;;;;;;4984770;28;20422;-71
2023/07/03 08:37:55;;;;;;;13.68;4.60;;;;;;;;;;4984633;28;20468;-63
2023/07/03 08:40:23;;;;;;;17.88;4.85;;;;;;;;;;4984307;28;20422;-63
2023/07/03 08:42:53;;;;;;;16.25;4.60;;;;;;;;;;4984105;28;20420;-62
2023/07/03 08:45:22;;;;;;;14.98;4.32;;;;;;;;;;4978938;28;20542;-64
2023/07/03 08:47:50;;;;;;;27.67;6.13;;;;;;;;;;4984704;28;20426;-72
2023/07/03 08:50:19;;;;;;;17.75;4.15;;;;;;;;;;4985748;28;20542;-65
2023/07/03 08:52:58;;;;;;;13.77;4.53;;;;;;;;;;4982479;28;20424;-64
2023/07/03 08:55:28;;;;;;;12.50;3.95;;;;;;;;;;4981471;28;20498;-63
2023/07/03 08:57:55;;;;;;;17.50;4.65;;;;;;;;;;4986980;28;20457;-68
2023/07/03 09:00:23;;;;;;;18.27;4.35;;;;;;;;;;4985161;28;20488;-64
2023/07/03 09:02:53;;;;;;;15.75;4.40;;;;;;;;;;4979129;28;20426;-64
2023/07/03 09:05:25;;;;;;;15.20;4.65;;;;;;;;;;4983295;28;20410;-64
2023/07/03 09:07:55;;;;;;;15.88;4.20;;;;;;;;;;4983158;28;20452;-64
2023/07/03 09:10:25;;;;;;;14.77;4.50;;;;;;;;;;4987877;28;20850;-62
2023/07/03 09:12:54;;;;;;;13.55;4.68;;;;;;;;;;4983015;28;20790;-63
2023/07/03 09:15:24;;;;;;;16.35;4.60;;;;;;;;;;4979055;28;20508;-64
2023/07/03 09:17:53;;;;;;;17.55;4.57;;;;;;;;;;4978491;28;20423;-63
2023/07/03 09:20:21;;;;;;;13.35;3.92;;;;;;;;;;4981762;28;20478;-62
2023/07/03 09:22:51;;;;;;;12.15;3.88;;;;;;;;;;4985941;28;20459;-65
2023/07/03 09:25:21;;;;;;;13.10;4.22;;;;;;;;;;4980998;28;20426;-63
2023/07/03 09:27:49;;;;;;;13.05;4.07;;;;;;;;;;4985637;28;20439;-62
2023/07/03 09:30:17;;;;;;;13.52;4.40;;;;;;;;;;4985712;28;20422;-62
2023/07/03 09:32:44;;;;;;;11.88;3.90;;;;;;;;;;4981107;28;20432;-63
2023/07/03 09:35:13;;;;;;;9.30;3.33;;;;;;;;;;4979702;28;20432;-63
2023/07/03 09:37:41;;;;;;;13.18;3.50;;;;;;;;;;4981768;28;20422;-63
2023/07/03 09:40:13;;;;;;;12.17;3.90;;;;;;;;;;4985358;28;20492;-61
2023/07/03 09:42:42;;;;;;;11.95;3.63;;;;;;;;;;4982952;28;20480;-63
2023/07/03 09:45:14;;;;;;;11.38;3.95;;;;;;;;;;4985228;28;20414;-64
2023/07/03 09:47:42;;;;;;;10.97;3.40;;;;;;;;;;4982523;28;20485;-63
2023/07/03 09:50:09;;;;;;;11.38;3.40;;;;;;;;;;4983308;28;20476;-62
2023/07/03 09:52:42;;;;;;;10.95;3.67;;;;;;;;;;4981472;28;20422;-66
2023/07/03 09:55:09;;;;;;;13.07;3.25;;;;;;;;;;4981921;28;20432;-64
2023/07/03 09:57:36;;;;;;;9.85;3.50;;;;;;;;;;4978069;28;20500;-63
2023/07/03 10:00:11;;;;;;;7.10;3.03;;;;;;;;;;4986210;28;20346;-65
2023/07/03 10:02:38;;;;;;;12.20;3.13;;;;;;;;;;4985221;28;20231;-64
2023/07/03 10:05:06;;;;;;;11.70;3.60;;;;;;;;;;4982914;28;20211;-66
2023/07/03 10:07:34;;;;;;;10.80;3.00;;;;;;;;;;4981612;28;20243;-65
2023/07/03 10:10:01;;;;;;;8.43;3.30;;;;;;;;;;4986427;28;20602;-64
2023/07/03 10:12:31;;;;;;;13.80;4.17;;;;;;;;;;4981435;28;20228;-63
2023/07/03 10:15:00;;;;;;;9.83;3.27;;;;;;;;;;4986995;28;20227;-65
2023/07/03 10:17:27;;;;;;;;;;;;;;;;;;4985531;28;20050;-64
2023/07/03 10:19:57;;;;;;;11.30;2.87;;;;;;;;;;4982382;28;20229;-63
2023/07/03 10:22:26;;;;;;;13.70;2.80;;;;;;;;;;4980079;28;20926;-65
2023/07/03 10:24:54;;;;;;;11.00;2.90;;;;;;;;;;4981975;28;20303;-65
2023/07/03 10:27:23;;;;;;;11.57;2.97;;;;;;;;;;4983088;28;20218;-64
2023/07/03 10:29:53;;;;;;;11.33;3.07;;;;;;;;;;4987349;28;20216;-65
2023/07/03 10:32:20;;;;;;;7.13;3.03;;;;;;;;;;4984780;28;20763;-64
2023/07/03 10:34:50;;;;;;;8.77;3.20;;;;;;;;;;4981745;28;20748;-67
2023/07/03 10:37:17;;;;;;;;;;;;;;;;;;4981052;28;20085;-70
2023/07/03 10:39:49;;;;;;;12.43;3.40;;;;;;;;;;4982496;28;20272;-69
2023/07/03 10:42:19;;;;;;;16.10;3.47;;;;;;;;;;4982571;28;20228;-64
2023/07/03 10:44:47;;;;;;;6.43;2.57;;;;;;;;;;4977286;28;20291;-63
2023/07/03 10:47:18;;;;;;;6.03;2.57;;;;;;;;;;4987072;28;20200;-63
2023/07/03 10:49:46;;;;;;;7.93;2.80;;;;;;;;;;4981443;28;20649;-64
2023/07/03 10:52:17;;;;;;;7.33;2.83;;;;;;;;;;4979794;28;20232;-65
2023/07/03 10:54:50;;;;;;;6.83;2.40;;;;;;;;;;4981683;28;20228;-65
2023/07/03 10:57:21;;;;;;;11.00;3.03;;;;;;;;;;4984866;28;20266;-66
2023/07/03 10:59:50;;;;;;;9.50;2.77;;;;;;;;;;4985634;28;20673;-64
2023/07/03 11:02:17;;;;;;;;;;;;;;;;;;4984256;28;20062;-61
2023/07/03 11:04:51;;;;;;;7.72;2.75;;;;;;;;;;4984633;28;20415;-63
2023/07/03 11:07:21;;;;;;;10.97;3.17;;;;;;;;;;4975535;28;20280;-63
2023/07/03 11:09:52;;;;;;;9.00;2.67;;;;;;;;;;4988408;28;20302;-65
2023/07/03 11:12:23;;;;;;;9.33;1.97;;;;;;;;;;4986766;28;20298;-66
2023/07/03 11:14:55;;;;;;;8.40;2.97;;;;;;;;;;4986617;28;20884;-67
2023/07/03 11:17:30;;;;;;;8.57;2.40;;;;;;;;;;4992084;28;20246;-66
2023/07/03 11:20:06;;;;;;;8.63;2.37;;;;;;;;;;4983572;28;20212;-64
2023/07/03 11:22:37;;;;;;;7.80;2.60;;;;;;;;;;4988262;28;20322;-66
2023/07/03 11:25:13;;;;;;;7.53;2.10;;;;;;;;;;4984838;28;20200;-64
2023/07/03 11:27:47;;;;;;;9.10;2.90;;;;;;;;;;4986039;28;20200;-66
2023/07/03 11:30:14;;;;;;;8.60;2.40;;;;;;;;;;4993774;28;20204;-71
2023/07/03 11:32:41;;;;;;;;;;;;;;;;;;4986142;28;20055;-69
2023/07/03 11:35:09;;;;;;;11.07;3.45;;;;;;;;;;4984489;28;20951;-65
2023/07/03 11:37:43;;;;;;;11.03;3.53;;;;;;;;;;4987526;28;20200;-71
2023/07/03 11:40:29;;;;;;;11.73;2.53;;;;;;;;;;4987598;28;20216;-66
2023/07/03 11:43:11;;;;;;;9.03;2.90;;;;;;;;;;4985415;28;20271;-65
2023/07/03 11:45:39;;;;;;;11.37;3.00;;;;;;;;;;4985010;28;20208;-66
2023/07/03 11:48:18;;;;;;;7.67;2.97;;;;;;;;;;4982256;28;20323;-66
2023/07/03 11:50:55;;;;;;;9.23;3.33;;;;;;;;;;4988731;28;20208;-65
2023/07/03 11:53:32;;;;;;;10.17;3.27;;;;;;;;;;4985705;28;20299;-67
2023/07/03 11:56:00;;;;;;;7.43;3.10;;;;;;;;;;4995540;28;20239;-66
2023/07/03 11:58:28;;;;;;;10.17;3.53;;;;;;;;;;4988224;28;20200;-66
2023/07/03 12:01:10;;;;;;;8.03;2.90;;;;;;;;;;4990389;28;20207;-65
2023/07/03 12:03:51;;;;;;;9.70;3.97;;;;;;;;;;4979018;28;20251;-65
2023/07/03 12:06:33;;;;;;;11.13;3.13;;;;;;;;;;4982220;28;20205;-64
2023/07/03 12:09:15;;;;;;;9.03;2.97;;;;;;;;;;4983639;28;20568;-65
2023/07/03 12:11:57;;;;;;;10.13;3.40;;;;;;;;;;4983505;28;20724;-67
2023/07/03 12:14:47;;;;;;;10.17;3.40;;;;;;;;;;4986355;28;20704;-66
2023/07/03 12:17:17;;;;;;;8.87;3.00;;;;;;;;;;4985709;28;20269;-71
2023/07/03 12:19:46;;;;;;;12.40;3.30;;;;;;;;;;4987393;28;20208;-66
2023/07/03 12:22:14;;;;;;;6.03;3.00;;;;;;;;;;4987957;28;20282;-70
2023/07/03 12:24:41;;;;;;;10.80;3.43;;;;;;;;;;4982763;28;20304;-66
2023/07/03 12:27:08;;;;;;;12.07;3.80;;;;;;;;;;4983938;28;20211;-66
2023/07/03 12:29:36;;;;;;;10.27;3.43;;;;;;;;;;4984423;28;20208;-67
2023/07/03 12:32:07;;;;;;;11.43;3.77;;;;;;;;;;4985285;28;20228;-67
2023/07/03 12:34:35;;;;;;;16.10;4.53;;;;;;;;;;4983520;28;20220;-69
2023/07/03 12:37:05;;;;;;;7.27;3.30;;;;;;;;;;4985866;28;20204;-69
2023/07/03 12:39:32;;;;;;;;;;;;;;;;;;4987789;28;20046;-68
2023/07/03 12:42:05;;;;;;;10.85;4.00;;;;;;;;;;4980491;28;20871;-68
2023/07/03 12:44:32;;;;;;;;;;;;;;;;;;4982629;28;20109;-66
2023/07/03 12:47:07;;;;;;;8.70;3.40;;;;;;;;;;4987511;28;20213;-67
2023/07/03 12:49:34;;;;;;;;;;;;;;;;;;4984300;28;20562;-65
2023/07/03 12:52:03;;;;;;;12.27;3.88;;;;;;;;;;4987193;28;20496;-66
2023/07/03 12:54:30;;;;;;;;;;;;;;;;;;4985656;28;20053;-67
2023/07/03 12:56:59;;;;;;;;;;;;;;;;;;4988331;28;19926;-67
2023/07/03 12:59:26;;;;;;;;;;;;;;;;;;4983424;28;19945;-67
2023/07/03 13:01:53;;;;;;;;;;;;;;;;;;4985809;28;19925;-67
2023/07/03 13:04:20;;;;;;;;;;;;;;;;;;4989490;28;19972;-71
2023/07/03 13:06:47;;;;;;;;;;;;;;;;;;4986401;28;19925;-68
2023/07/03 13:09:14;;;;;;;;;;;;;;;;;;4983283;28;20016;-69
2023/07/03 13:11:41;;;;;;;;;;;;;;;;;;4988440;28;19929;-67
2023/07/03 13:14:07;;;;;;;;;;;;;;;;;;4987134;28;20133;-69
2023/07/03 13:16:35;;;;;;;;;;;;;;;;;;4986167;28;20405;-68
2023/07/03 13:19:01;;;;;;;;;;;;;;;;;;4986252;28;19921;-68
2023/07/03 13:21:28;;;;;;;;;;;;;;;;;;4983190;28;20259;-72
2023/07/03 13:23:55;;;;;;;;;;;;;;;;;;4986206;28;20382;-68
2023/07/03 13:26:22;;;;;;;;;;;;;;;;;;4984998;28;20342;-66
2023/07/03 13:28:49;;;;;;;;;;;;;;;;;;4984017;28;19922;-64
2023/07/03 13:31:16;;;;;;;;;;;;;;;;;;4985872;28;19922;-65
2023/07/03 13:33:43;;;;;;;;;;;;;;;;;;4983102;28;19969;-65
2023/07/03 13:36:10;;;;;;;;;;;;;;;;;;4989881;28;19921;-65
2023/07/03 13:38:37;;;;;;;;;;;;;;;;;;4984332;28;19980;-64
2023/07/03 13:41:04;;;;;;;;;;;;;;;;;;4990634;28;19922;-64
2023/07/03 13:43:30;;;;;;;;;;;;;;;;;;4986016;28;19922;-65
2023/07/03 13:45:57;;;;;;;;;;;;;;;;;;4984307;28;19939;-66
2023/07/03 13:48:24;;;;;;;;;;;;;;;;;;4988941;28;19929;-65
2023/07/03 13:50:52;;;;;;;;;;;;;;;;;;4985571;28;19996;-66
2023/07/03 13:53:19;;;;;;;;;;;;;;;;;;4983570;28;19952;-65
2023/07/03 13:55:47;;;;;;;;;;;;;;;;;;4984355;28;19929;-67
2023/07/03 13:58:14;;;;;;;;;;;;;;;;;;4984170;28;19922;-67
2023/07/03 14:00:40;;;;;;;;;;;;;;;;;;4980266;28;19930;-64
2023/07/03 14:03:07;;;;;;;;;;;;;;;;;;4983110;28;19929;-70
2023/07/03 14:05:34;;;;;;;;;;;;;;;;;;4984870;28;19930;-67
2023/07/03 14:08:01;;;;;;;;;;;;;;;;;;4982521;28;19925;-67
2023/07/03 14:10:28;;;;;;;;;;;;;;;;;;4981009;28;19930;-67
2023/07/03 14:12:55;;;;;;;;;;;;;;;;;;4980221;28;19977;-66
2023/07/03 14:15:23;;;;;;;;;;;;;;;;;;4982114;28;19922;-66
2023/07/03 14:17:50;;;;;;;;;;;;;;;;;;4983141;28;19926;-66
2023/07/03 14:20:17;;;;;;;;;;;;;;;;;;4982213;28;20905;-67
2023/07/03 14:22:43;;;;;;;;;;;;;;;;;;4978639;28;20286;-68
2023/07/03 14:25:10;;;;;;;;;;;;;;;;;;4979248;28;19986;-68
2023/07/03 14:27:37;;;;;;;;;;;;;;;;;;4981629;28;19929;-68
2023/07/03 14:30:04;;;;;;;;;;;;;;;;;;4982098;28;19926;-67
2023/07/03 14:32:31;;;;;;;;;;;;;;;;;;4983117;28;19926;-66
2023/07/03 14:34:58;;;;;;;;;;;;;;;;;;4981969;28;20389;-65
2023/07/03 14:37:25;;;;;;;;;;;;;;;;;;4985668;28;19934;-65
2023/07/03 14:39:51;;;;;;;;;;;;;;;;;;4988618;28;19980;-66
2023/07/03 14:42:18;;;;;;;;;;;;;;;;;;4986117;28;19921;-65
2023/07/03 14:44:45;;;;;;;;;;;;;;;;;;4991977;28;20410;-65
2023/07/03 14:47:12;;;;;;;;;;;;;;;;;;4988900;28;19932;-64
2023/07/03 14:49:40;;;;;;;10.80;3.30;;;;;;;;;;4992975;28;20218;-64
2023/07/03 14:52:08;;;;;;;10.23;3.30;;;;;;;;;;4990966;28;20677;-63
2023/07/03 14:54:35;;;;;;;7.50;2.80;;;;;;;;;;4988280;28;20278;-64